createdAt,value
2019-02-07T00:02:00.951Z,81.21
2019-02-07T00:05:04.266Z,82.25
2019-02-07T00:08:07.112Z,80.93
2019-02-07T00:11:10.125Z,81.37
2019-02-07T00:14:12.756Z,80.70
2019-02-07T00:17:15.806Z,79.93
2019-02-07T00:20:18.640Z,81.31
2019-02-07T00:23:21.348Z,81.57
2019-02-07T00:26:24.015Z,81.09
2019-02-07T00:29:26.626Z,81.13
2019-02-07T00:32:29.459Z,81.53
2019-02-07T00:35:32.202Z,81.83
2019-02-07T00:38:34.923Z,81.33
2019-02-07T00:41:37.670Z,82.41
2019-02-07T00:44:50.219Z,81.25
2019-02-07T00:47:44.867Z,81.46
2019-02-07T00:50:47.556Z,80.84
2019-02-07T00:53:50.240Z,81.35
2019-02-07T00:56:52.902Z,82.73
2019-02-07T00:59:55.643Z,81.41
2019-02-07T01:02:58.278Z,81.84
2019-02-07T01:06:00.948Z,82.71
2019-02-07T01:09:06.902Z,81.99
2019-02-07T01:12:09.571Z,82.87
2019-02-07T01:15:13.187Z,83.14
2019-02-07T01:18:15.813Z,82.06
2019-02-07T01:21:18.475Z,83.73
2019-02-07T01:24:21.166Z,82.23
2019-02-07T01:27:23.783Z,82.47
2019-02-07T01:30:27.043Z,82.69
2019-02-07T01:33:29.790Z,83.64
2019-02-07T01:36:32.541Z,83.97
2019-02-07T01:39:35.655Z,84.86
2019-02-07T01:42:38.322Z,84.88
2019-02-07T01:45:40.886Z,83.98
2019-02-07T01:48:43.490Z,83.89
2019-02-07T01:51:46.167Z,82.56
2019-02-07T01:54:48.827Z,81.82
2019-02-07T01:57:51.583Z,83.49
2019-02-07T02:00:54.284Z,83.19
2019-02-07T02:03:57.013Z,82.35
2019-02-07T02:06:59.591Z,82.65
2019-02-07T02:10:02.550Z,83.07
2019-02-07T02:13:05.448Z,83.12
2019-02-07T02:16:08.210Z,83.22
2019-02-07T02:19:10.839Z,83.18
2019-02-07T02:22:13.516Z,81.92
2019-02-07T02:25:16.850Z,82.31
2019-02-07T02:28:19.664Z,83.12
2019-02-07T02:31:22.326Z,82.70
2019-02-07T02:34:25.181Z,82.73
2019-02-07T02:37:27.868Z,82.60
2019-02-07T02:40:30.926Z,82.19
2019-02-07T02:43:33.560Z,81.04
2019-02-07T02:46:36.420Z,80.53
2019-02-07T02:49:39.021Z,80.50
2019-02-07T02:52:41.717Z,78.85
2019-02-07T02:55:44.785Z,78.96
2019-02-07T02:58:47.555Z,78.27
2019-02-07T03:02:12.514Z,76.77
2019-02-07T03:05:33.431Z,77.14
2019-02-07T03:09:01.593Z,76.49
2019-02-07T03:12:39.934Z,76.74
2019-02-07T03:15:58.891Z,75.38
2019-02-07T03:19:20.947Z,73.85
2019-02-07T03:22:39.475Z,73.74
2019-02-07T03:26:00.591Z,72.95
2019-02-07T03:29:21.576Z,72.19
2019-02-07T03:32:53.690Z,72.71
2019-02-07T03:36:14.571Z,73.31
2019-02-07T03:39:35.310Z,73.30
2019-02-07T03:42:53.191Z,74.10
2019-02-07T03:46:14.755Z,73.72
2019-02-07T03:49:22.850Z,74.64
2019-02-07T03:52:32.785Z,74.60
2019-02-07T03:56:01.086Z,74.80
2019-02-07T03:59:14.962Z,74.55
2019-02-07T04:02:35.962Z,76.51
2019-02-07T04:05:58.206Z,76.66
2019-02-07T04:09:19.071Z,76.84
2019-02-07T04:12:47.557Z,78.78
2019-02-07T04:16:15.136Z,78.96
2019-02-07T04:19:36.822Z,78.31
2019-02-07T04:22:52.265Z,76.71
2019-02-07T04:26:26.534Z,76.82
2019-02-07T04:30:00.781Z,77.47
2019-02-07T04:33:21.803Z,76.91
2019-02-07T04:36:47.249Z,75.85
2019-02-07T04:40:22.144Z,76.16
2019-02-07T04:43:56.641Z,75.27
2019-02-07T04:47:17.401Z,75.20
2019-02-07T04:50:38.365Z,75.17
2019-02-07T04:54:03.942Z,75.31
2019-02-07T04:57:20.542Z,76.45
2019-02-07T05:00:33.626Z,76.77
2019-02-07T05:03:46.590Z,77.53
2019-02-07T05:07:07.634Z,75.50
2019-02-07T05:10:28.462Z,75.95
2019-02-07T05:13:49.448Z,77.68
2019-02-07T05:17:20.874Z,76.52
2019-02-07T05:20:42.101Z,75.81
2019-02-07T05:24:01.598Z,75.30
2019-02-07T05:27:15.917Z,74.65
2019-02-07T05:30:56.291Z,75.50
2019-02-07T05:34:24.614Z,74.65
2019-02-07T05:37:45.576Z,73.75
2019-02-07T05:41:26.588Z,73.67
2019-02-07T05:44:48.286Z,74.31
2019-02-07T05:48:16.607Z,74.28
2019-02-07T05:51:51.039Z,74.07
2019-02-07T05:55:16.310Z,73.25
2019-02-07T05:58:27.970Z,73.65
2019-02-07T06:01:59.416Z,74.10
2019-02-07T06:05:33.773Z,73.86
2019-02-07T06:08:58.924Z,73.33
2019-02-07T06:12:31.329Z,73.13
2019-02-07T06:15:44.490Z,73.35
2019-02-07T06:19:15.922Z,72.21
2019-02-07T06:22:36.939Z,71.63
2019-02-07T06:26:02.050Z,72.70
2019-02-07T06:29:33.251Z,72.94
2019-02-07T06:32:55.391Z,73.91
2019-02-07T06:36:23.800Z,74.62
2019-02-07T06:39:33.694Z,74.50
2019-02-07T06:42:55.876Z,73.43
2019-02-07T06:46:30.381Z,73.65
2019-02-07T06:50:07.910Z,73.91
2019-02-07T06:53:36.130Z,72.81
2019-02-07T06:56:57.029Z,72.91
2019-02-07T07:00:22.580Z,74.69
2019-02-07T07:03:43.895Z,74.47
2019-02-07T07:07:15.162Z,73.50
2019-02-07T07:10:46.635Z,74.74
2019-02-07T07:14:14.675Z,76.37
2019-02-07T07:17:43.434Z,76.11
2019-02-07T07:21:05.491Z,76.20
2019-02-07T07:24:26.584Z,76.18
2019-02-07T07:27:43.147Z,76.61
2019-02-07T07:31:03.265Z,78.50
2019-02-07T07:34:31.566Z,79.15
2019-02-07T07:37:53.607Z,81.18
2019-02-07T07:41:31.110Z,81.36
2019-02-07T07:44:56.015Z,81.16
2019-02-07T07:48:16.970Z,81.06
2019-02-07T07:51:42.776Z,81.54
2019-02-07T07:55:07.937Z,81.64
2019-02-07T07:58:29.454Z,81.38
2019-02-07T08:01:48.629Z,80.91
2019-02-07T08:04:59.409Z,79.85
2019-02-07T08:08:27.491Z,79.94
2019-02-07T08:11:37.207Z,80.55
2019-02-07T08:14:58.255Z,79.78
2019-02-07T08:18:19.261Z,80.03
2019-02-07T08:21:27.946Z,79.25
2019-02-07T08:24:53.071Z,79.35
2019-02-07T08:28:21.669Z,79.70
2019-02-07T08:31:33.231Z,79.51
2019-02-07T08:35:10.671Z,80.77
2019-02-07T08:38:38.493Z,80.90
2019-02-07T08:42:00.220Z,81.74
2019-02-07T08:45:33.676Z,83.20
2019-02-07T08:49:08.436Z,83.61
2019-02-07T08:52:28.939Z,85.08
2019-02-07T08:55:57.350Z,86.69
2019-02-07T08:59:19.717Z,88.39
2019-02-07T09:02:52.087Z,89.71
2019-02-07T09:06:29.725Z,89.97
2019-02-07T09:09:39.386Z,92.28
2019-02-07T09:13:00.461Z,92.70
2019-02-07T09:16:21.256Z,93.21
2019-02-07T09:19:55.715Z,93.74
2019-02-07T09:23:16.840Z,95.15
2019-02-07T09:26:41.578Z,97.28
2019-02-07T09:30:09.765Z,98.24
2019-02-07T09:33:30.770Z,98.40
2019-02-07T09:36:58.829Z,98.64
2019-02-07T09:40:16.731Z,98.90
2019-02-07T09:43:28.482Z,98.45
2019-02-07T09:46:56.553Z,99.72
2019-02-07T09:50:37.240Z,101.44
2019-02-07T09:53:58.004Z,99.92
2019-02-07T09:57:18.729Z,100.41
2019-02-07T10:00:27.476Z,99.73
2019-02-07T10:03:40.499Z,99.69
2019-02-07T10:07:05.676Z,99.40
2019-02-07T10:10:31.263Z,100.43
2019-02-07T10:13:48.526Z,100.40
2019-02-07T10:17:09.079Z,99.66
2019-02-07T10:20:40.345Z,98.44
2019-02-07T10:24:01.735Z,98.71
2019-02-07T10:27:39.254Z,99.51
2019-02-07T10:31:07.489Z,98.71
2019-02-07T10:34:35.571Z,98.09
2019-02-07T10:38:03.625Z,97.63
2019-02-07T10:41:14.906Z,97.90
2019-02-07T10:44:49.434Z,97.53
2019-02-07T10:48:14.528Z,97.10
2019-02-07T10:51:42.683Z,97.27
2019-02-07T10:54:56.522Z,96.81
2019-02-07T10:58:17.684Z,95.87
2019-02-07T11:01:39.930Z,93.96
2019-02-07T11:04:58.905Z,95.02
2019-02-07T11:08:11.660Z,94.38
2019-02-07T11:11:20.971Z,94.22
2019-02-07T11:14:42.092Z,93.01
2019-02-07T11:18:01.301Z,92.27
2019-02-07T11:21:22.183Z,92.09
2019-02-07T11:24:50.298Z,93.24
2019-02-07T11:28:13.503Z,94.10
2019-02-07T11:31:35.411Z,93.16
2019-02-07T11:34:48.620Z,94.54
2019-02-07T11:38:03.113Z,95.77
2019-02-07T11:41:33.158Z,94.29
2019-02-07T11:44:54.279Z,94.35
2019-02-07T11:48:19.621Z,91.35
2019-02-07T11:51:48.018Z,90.84
2019-02-07T11:54:59.444Z,89.99
2019-02-07T11:58:30.770Z,88.75
2019-02-07T12:02:08.877Z,87.04
2019-02-07T12:05:24.534Z,83.68
2019-02-07T12:08:38.755Z,82.29
2019-02-07T12:11:56.114Z,80.38
2019-02-07T12:15:17.035Z,79.38
2019-02-07T12:18:37.908Z,80.26
2019-02-07T12:22:18.220Z,80.10
2019-02-07T12:25:44.198Z,80.04
2019-02-07T12:29:06.339Z,80.89
2019-02-07T12:32:25.628Z,80.12
2019-02-07T12:35:47.681Z,77.68
2019-02-07T12:39:09.831Z,77.67
2019-02-07T12:42:47.394Z,78.30
2019-02-07T12:46:18.593Z,77.19
2019-02-07T12:49:39.479Z,75.33
2019-02-07T12:53:12.343Z,75.18
2019-02-07T12:56:34.742Z,75.26
2019-02-07T12:59:58.168Z,75.84
2019-02-07T13:03:14.642Z,74.54
2019-02-07T13:06:35.556Z,74.76
2019-02-07T13:09:48.429Z,73.65
2019-02-07T13:13:04.643Z,73.20
2019-02-07T13:16:18.123Z,72.66
2019-02-07T13:19:40.893Z,71.35
2019-02-07T13:23:02.027Z,72.48
2019-02-07T13:26:22.883Z,70.42
2019-02-07T13:29:45.145Z,69.94
2019-02-07T13:33:00.146Z,71.00
2019-02-07T13:36:22.168Z,69.99
2019-02-07T13:39:43.461Z,70.26
2019-02-07T13:43:17.928Z,70.24
2019-02-07T13:46:41.075Z,69.89
2019-02-07T13:49:58.568Z,70.24
2019-02-07T13:53:18.604Z,69.88
2019-02-07T13:56:40.781Z,70.97
2019-02-07T14:00:04.585Z,70.92
2019-02-07T14:03:31.333Z,70.97
2019-02-07T14:06:56.900Z,70.03
2019-02-07T14:10:12.273Z,69.37
2019-02-07T14:13:34.425Z,69.53
2019-02-07T14:16:59.652Z,67.02
2019-02-07T14:20:12.008Z,68.44
2019-02-07T14:23:37.907Z,67.94
2019-02-07T14:26:54.625Z,68.54
2019-02-07T14:30:25.881Z,68.95
2019-02-07T14:33:46.980Z,67.30
2019-02-07T14:36:58.201Z,68.23
2019-02-07T14:40:17.677Z,69.08
2019-02-07T14:43:29.124Z,69.74
2019-02-07T14:46:51.117Z,69.86
2019-02-07T14:49:53.746Z,68.02
2019-02-07T14:52:56.500Z,68.76
2019-02-07T14:55:59.504Z,68.66
2019-02-07T14:59:02.204Z,68.57
2019-02-07T15:02:04.950Z,68.51
2019-02-07T15:05:09.110Z,69.70
2019-02-07T15:08:11.908Z,68.73
2019-02-07T15:11:15.682Z,69.53
2019-02-07T15:14:18.924Z,70.04
2019-02-07T15:17:21.606Z,69.68
2019-02-07T15:20:26.339Z,70.32
2019-02-07T15:23:28.902Z,71.40
2019-02-07T15:26:31.655Z,71.53
2019-02-07T15:29:34.490Z,70.99
2019-02-07T15:32:37.315Z,71.24
2019-02-07T15:35:43.425Z,71.91
2019-02-07T15:38:46.128Z,72.13
2019-02-07T15:41:49.103Z,71.92
2019-02-07T15:44:55.020Z,72.88
2019-02-07T15:47:57.769Z,73.36
2019-02-07T15:51:00.562Z,72.19
2019-02-07T15:54:03.935Z,72.68
2019-02-07T15:57:06.513Z,73.28
2019-02-07T16:00:30.810Z,73.30
2019-02-07T16:03:47.494Z,73.11
2019-02-07T16:06:50.081Z,73.40
2019-02-07T16:09:52.818Z,74.23
2019-02-07T16:12:55.510Z,73.80
2019-02-07T16:15:59.154Z,73.43
2019-02-07T16:19:01.937Z,73.91
2019-02-07T16:22:04.633Z,72.46
2019-02-07T16:25:08.900Z,74.11
2019-02-07T16:28:11.448Z,74.09
2019-02-07T16:31:16.375Z,74.43
2019-02-07T16:34:19.028Z,74.78
2019-02-07T16:37:21.856Z,75.01
2019-02-07T16:40:24.644Z,74.46
2019-02-07T16:43:27.513Z,75.26
2019-02-07T16:46:30.162Z,75.24
2019-02-07T16:49:33.008Z,75.23
2019-02-07T16:52:35.819Z,74.91
2019-02-07T16:55:38.614Z,74.18
2019-02-07T16:58:42.347Z,73.99
2019-02-07T17:01:45.014Z,74.36
2019-02-07T17:04:47.844Z,74.56
2019-02-07T17:07:50.725Z,74.06
2019-02-07T17:10:53.377Z,73.56
2019-02-07T17:13:56.163Z,73.90
2019-02-07T17:16:58.802Z,74.20
2019-02-07T17:20:01.406Z,73.58
2019-02-07T17:23:04.607Z,74.30
2019-02-07T17:26:07.377Z,74.46
2019-02-07T17:29:10.199Z,73.91
2019-02-07T17:32:13.243Z,74.35
2019-02-07T17:35:16.462Z,74.10
2019-02-07T17:38:19.185Z,74.26
2019-02-07T17:41:21.862Z,74.15
2019-02-07T17:44:24.597Z,74.15
2019-02-07T17:47:27.223Z,74.20
2019-02-07T17:50:31.622Z,74.51
2019-02-07T17:53:35.224Z,73.48
2019-02-07T17:56:37.894Z,74.14
2019-02-07T17:59:40.593Z,74.64
2019-02-07T18:02:43.271Z,74.75
2019-02-07T18:05:45.952Z,74.89
2019-02-07T18:08:48.553Z,74.07
2019-02-07T18:11:51.322Z,74.16
2019-02-07T18:14:53.943Z,74.20
2019-02-07T18:17:57.240Z,74.65
2019-02-07T18:21:00.263Z,74.38
2019-02-07T18:24:03.749Z,74.15
2019-02-07T18:27:06.647Z,73.90
2019-02-07T18:30:16.673Z,74.09
2019-02-07T18:33:19.449Z,73.88
2019-02-07T18:36:22.161Z,74.33
2019-02-07T18:39:25.018Z,74.34
2019-02-07T18:42:28.065Z,75.35
2019-02-07T18:45:30.808Z,75.27
2019-02-07T18:48:33.574Z,75.86
2019-02-07T18:51:45.298Z,76.23
2019-02-07T18:54:40.848Z,77.25
2019-02-07T18:57:43.660Z,77.26
2019-02-07T19:00:46.273Z,78.06
2019-02-07T19:03:49.040Z,78.58
2019-02-07T19:06:51.753Z,78.70
2019-02-07T19:09:54.533Z,80.19
2019-02-07T19:12:57.315Z,80.58
2019-02-07T19:16:10.104Z,81.00
2019-02-07T19:19:12.768Z,81.79
2019-02-07T19:22:15.508Z,82.35
2019-02-07T19:25:18.297Z,82.86
2019-02-07T19:28:21.264Z,82.61
2019-02-07T19:31:23.991Z,82.28
2019-02-07T19:34:26.699Z,82.09
2019-02-07T19:37:29.419Z,82.21
2019-02-07T19:40:32.204Z,82.22
2019-02-07T19:43:34.767Z,82.06
2019-02-07T19:46:37.482Z,82.27
2019-02-07T19:49:40.363Z,82.01
2019-02-07T19:52:43.192Z,82.35
2019-02-07T19:55:45.945Z,82.67
2019-02-07T19:58:48.662Z,82.79
2019-02-07T20:01:51.417Z,82.99
2019-02-07T20:04:54.177Z,83.31
2019-02-07T20:07:57.207Z,83.99
2019-02-07T20:10:59.863Z,84.56
2019-02-07T20:14:02.732Z,84.33
2019-02-07T20:17:05.433Z,83.82
2019-02-07T20:20:08.834Z,84.28
2019-02-07T20:23:11.492Z,84.34
2019-02-07T20:26:14.873Z,83.79
2019-02-07T20:29:17.563Z,83.77
2019-02-07T20:32:20.339Z,84.23
2019-02-07T20:35:23.135Z,84.09
2019-02-07T20:38:25.850Z,83.94
2019-02-07T20:41:28.423Z,84.72
2019-02-07T20:44:31.194Z,84.95
2019-02-07T20:47:33.859Z,85.11
2019-02-07T20:50:36.994Z,85.88
2019-02-07T20:53:39.727Z,85.88
2019-02-07T20:56:42.394Z,85.40
2019-02-07T20:59:45.138Z,84.17
2019-02-07T21:02:47.967Z,83.91
2019-02-07T21:05:50.787Z,84.24
2019-02-07T21:08:53.455Z,84.04
2019-02-07T21:11:56.262Z,84.63
2019-02-07T21:14:59.033Z,84.18
2019-02-07T21:18:01.764Z,84.86
2019-02-07T21:21:04.647Z,84.36
2019-02-07T21:24:07.834Z,84.65
2019-02-07T21:27:10.594Z,84.86
2019-02-07T21:30:17.324Z,84.65
2019-02-07T21:33:21.405Z,84.21
2019-02-07T21:36:24.152Z,84.54
2019-02-07T21:39:26.939Z,83.31
2019-02-07T21:42:29.628Z,84.07
2019-02-07T21:45:32.407Z,84.21
2019-02-07T21:48:35.237Z,84.53
2019-02-07T21:51:38.923Z,84.29
2019-02-07T21:54:41.678Z,84.69
2019-02-07T21:57:44.623Z,84.22
2019-02-07T22:00:47.534Z,84.52
2019-02-07T22:03:50.383Z,83.63
2019-02-07T22:06:59.598Z,83.90
2019-02-07T22:09:58.972Z,84.29
2019-02-07T22:13:07.674Z,84.60
2019-02-07T22:16:06.258Z,85.29
2019-02-07T22:19:09.008Z,84.74
2019-02-07T22:22:11.781Z,85.39
2019-02-07T22:25:15.812Z,85.29
2019-02-07T22:28:18.712Z,85.48
2019-02-07T22:31:21.442Z,85.95
2019-02-07T22:34:24.253Z,86.11
2019-02-07T22:37:27.063Z,85.66
2019-02-07T22:40:29.758Z,85.79
2019-02-07T22:43:32.533Z,86.37
2019-02-07T22:46:35.196Z,85.91
2019-02-07T22:49:37.914Z,86.07
2019-02-07T22:52:47.932Z,86.95
2019-02-07T22:55:50.696Z,86.90
2019-02-07T22:58:55.311Z,87.28
2019-02-07T23:01:58.138Z,86.97
2019-02-07T23:05:00.927Z,87.14
2019-02-07T23:08:03.964Z,87.30
2019-02-07T23:11:11.717Z,87.83
2019-02-07T23:14:14.422Z,87.82
2019-02-07T23:17:17.182Z,87.40
2019-02-07T23:20:21.003Z,87.54
2019-02-07T23:23:23.699Z,87.56
2019-02-07T23:26:26.491Z,87.80
2019-02-07T23:29:29.157Z,88.33
2019-02-07T23:32:31.937Z,88.27
2019-02-07T23:35:34.715Z,88.72
2019-02-07T23:38:37.508Z,89.08
2019-02-07T23:41:40.261Z,89.18
2019-02-07T23:44:43.307Z,89.21
2019-02-07T23:47:45.994Z,88.86
2019-02-07T23:50:48.705Z,89.55
2019-02-07T23:53:51.415Z,88.51
2019-02-07T23:56:56.163Z,88.81
